Peaks Island, Maine
Current Conditions -  °F | °C
As of 6:51 PM on Sunday 25 Jan 2015 (Local Time) from KPWM Reporting Station
Clear Clear  
Wind Chill: 11°   Ceiling: Unl
Heat Index: 20°   Visibility: 10mi
Dew Point:   Wind: 7mph
Humidity: 44%   Direction: 310°NW
Pressure: 29.88"   Gusts: NA
Location:  43.66°N, 70.2°W
Report Text: KPWM 252351Z 31006KT 10SM CLR M07/M17 A2988 RMK AO2 PRESRR SLP118 T10671172 10011 21067 53061 $
Loading
Personal Weather Stations






























Interactive Weather Map New forecast layout! Learn more

10-Day Weather Forecast

Advertisements
Track Severe Weather on mobile